American Islander — WDC5089 — position and weather

sailwx.info

Track history (hours):
 
Tides and Currents Weather Stations Pressure Air Temp Water Temp Dewpoint Dewpoint Depression Visibility Wind Speed Wind Dir Waves Ship Positions

American Islander

Owner: AMERICAN WORKBOATS, INC., HONOLULU, HI. More information available from US FCC via Universal Licensing System and Coast Guard Vessel Documentation Center.

Last reported at 2017-Nov-17 13:53 UTC. Time now 2017-Nov-19 14:10 UTC.
Position N 33°32' W 117°58'.

Length 31 m; draft 4 m.

Type: Other ship. MMSI: 367035570.

Date/timePositionNaut miles runAvg speedWind from/ knotsBaromVisibWave heightAir tempDewpointWater temp
2017-Nov-17 13:53N 33°32' W 117°58'3 8.3
2017-Nov-17 13:30N 33°29' W 117°55'4 8.3
2017-Nov-17 13:00N 33°27' W 117°52'4 8.4
2017-Nov-17 12:30N 33°24' W 117°48'4 8.4
2017-Nov-17 12:00N 33°20' W 117°45'4 8.4
2017-Nov-17 11:30N 33°17' W 117°42'4 8.3
2017-Nov-17 11:00N 33°13' W 117°42'4 8.7
2017-Nov-17 10:30N 33°08' W 117°42'4 8.6
2017-Nov-17 10:00N 33°05' W 117°39'4 8.4
2017-Nov-17 09:30N 33°01' W 117°36'4 8.3
2017-Nov-17 09:00N 32°58' W 117°33'4 8.3
2017-Nov-17 08:30N 32°54' W 117°30'4 8.4
2017-Nov-17 08:00N 32°51' W 117°27'4 8.2
2017-Nov-17 07:30N 32°48' W 117°24'4 8.1
2017-Nov-17 07:00N 32°45' W 117°21'5 8.3
2017-Nov-17 06:28N 32°41' W 117°18'4 6.1
2017-Nov-17 05:45N 32°38' W 117°14'4 8.5
2017-Nov-17 05:20N 32°42' W 117°14'5 0.2
2017-Nov-16 05:59N 32°41' W 117°08'0 0.3
2017-Nov-16 05:30N 32°41' W 117°08'0 0.2
2017-Nov-16 05:00N 32°41' W 117°08'2 0.1
2017-Nov-15 00:59N 32°39' W 117°07'4 7.4
2017-Nov-15 00:27N 32°42' W 117°10'3 4.4
2017-Nov-14 23:45N 32°42' W 117°14'0 0.2
2017-Nov-14 23:20N 32°41' W 117°14'0 0.2
2017-Nov-14 22:59N 32°42' W 117°14'0 0.1
2017-Nov-14 22:30N 32°42' W 117°14'0 0.3
2017-Nov-14 21:26N 32°42' W 117°14'0 0.5
2017-Nov-14 20:59N 32°42' W 117°14'0 0.1
2017-Nov-14 18:02N 32°42' W 117°14'0 0.4
2017-Nov-14 17:26N 32°42' W 117°14'5 0.1
2017-Nov-13 01:51N 32°41' W 117°09'5 6.9
2017-Nov-13 01:12N 32°42' W 117°14'2 8.0
2017-Nov-13 00:53N 32°40' W 117°14'1 3.0
2017-Nov-13 00:30N 32°40' W 117°12'1 1.5
2017-Nov-12 23:58N 32°40' W 117°11'1 1.1
2017-Nov-12 23:20N 32°40' W 117°11'0 0.0
2017-Nov-12 22:59N 32°40' W 117°11'0 0.0
2017-Nov-12 22:14N 32°40' W 117°11'0 0.0
2017-Nov-12 21:50N 32°40' W 117°11'0 0.0
2017-Nov-12 21:29N 32°40' W 117°11'0 0.0
2017-Nov-12 20:58N 32°40' W 117°11'0 0.0
2017-Nov-12 20:28N 32°40' W 117°11'0 0.0
2017-Nov-12 18:53N 32°40' W 117°11'1 0.6
2017-Nov-12 17:47N 32°40' W 117°12'0 0.0
2017-Nov-12 17:30N 32°40' W 117°12'1 1.2
2017-Nov-12 17:00N 32°40' W 117°11'0 0.3
2017-Nov-12 16:24N 32°40' W 117°11'2 2.1
2017-Nov-12 15:30N 32°40' W 117°13'4 7.1
2017-Nov-12 15:00N 32°43' W 117°12'5 8.0
2017-Nov-12 14:22N 32°40' W 117°08'0 0.2
2017-Nov-12 12:37N 32°39' W 117°07'0 0.0
2017-Nov-12 12:30N 32°39' W 117°07'4 0.4
2017-Nov-12 02:02N 32°42' W 117°10'3 6.6
2017-Nov-12 01:34N 32°42' W 117°14'3 6.7
2017-Nov-12 01:10N 32°40' W 117°13'1 0.1
2017-Nov-11 16:20N 32°40' W 117°12'3 3.2
2017-Nov-11 15:29N 32°42' W 117°14'5 0.2
2017-Nov-10 13:18N 32°41' W 117°20'2 7.1
2017-Nov-10 13:00N 32°43' W 117°21'4 7.2
2017-Nov-10 12:30N 32°46' W 117°23'4 7.1
2017-Nov-10 12:00N 32°49' W 117°25'4 7.2
2017-Nov-10 11:30N 32°52' W 117°28'4 7.4
2017-Nov-10 11:00N 32°56' W 117°30'4 6.7
2017-Nov-10 10:25N 32°59' W 117°32'3 7.6
2017-Nov-10 10:00N 33°02' W 117°35'4 7.8
2017-Nov-10 09:30N 33°05' W 117°37'4 7.9
2017-Nov-10 09:00N 33°08' W 117°40'4 7.9
2017-Nov-10 08:30N 33°11' W 117°43'4 7.9
2017-Nov-10 08:00N 33°14' W 117°46'33 8.0
2017-Nov-10 03:49N 33°39' W 118°12'6 0.1
2017-Nov-08 00:51N 33°44' W 118°16'0 0.0
2017-Nov-08 00:30N 33°44' W 118°16'0 0.0
2017-Nov-08 00:00N 33°44' W 118°16'  
Track history (hours):
 
Tides and Currents Weather Stations Pressure Air Temp Water Temp Dewpoint Dewpoint Depression Visibility Wind Speed Wind Dir Waves Ship Positions

American Islander

Owner: AMERICAN WORKBOATS, INC., HONOLULU, HI. More information available from US FCC via Universal Licensing System and Coast Guard Vessel Documentation Center.

Last reported at 2017-Nov-17 13:53 UTC. Time now 2017-Nov-19 14:10 UTC.
Position N 33°32' W 117°58'.

Length 31 m; draft 4 m.

Type: Other ship. MMSI: 367035570.

Date/timePositionNaut miles runAvg speedWind from/ knotsBaromVisibWave heightAir tempDewpointWater temp
2017-Nov-17 13:53N 33°32' W 117°58'3 8.3
2017-Nov-17 13:30N 33°29' W 117°55'4 8.3
2017-Nov-17 13:00N 33°27' W 117°52'4 8.4
2017-Nov-17 12:30N 33°24' W 117°48'4 8.4
2017-Nov-17 12:00N 33°20' W 117°45'4 8.4
2017-Nov-17 11:30N 33°17' W 117°42'4 8.3
2017-Nov-17 11:00N 33°13' W 117°42'4 8.7
2017-Nov-17 10:30N 33°08' W 117°42'4 8.6
2017-Nov-17 10:00N 33°05' W 117°39'4 8.4
2017-Nov-17 09:30N 33°01' W 117°36'4 8.3
2017-Nov-17 09:00N 32°58' W 117°33'4 8.3
2017-Nov-17 08:30N 32°54' W 117°30'4 8.4
2017-Nov-17 08:00N 32°51' W 117°27'4 8.2
2017-Nov-17 07:30N 32°48' W 117°24'4 8.1
2017-Nov-17 07:00N 32°45' W 117°21'5 8.3
2017-Nov-17 06:28N 32°41' W 117°18'4 6.1
2017-Nov-17 05:45N 32°38' W 117°14'4 8.5
2017-Nov-17 05:20N 32°42' W 117°14'5 0.2
2017-Nov-16 05:59N 32°41' W 117°08'0 0.3
2017-Nov-16 05:30N 32°41' W 117°08'0 0.2
2017-Nov-16 05:00N 32°41' W 117°08'2 0.1
2017-Nov-15 00:59N 32°39' W 117°07'4 7.4
2017-Nov-15 00:27N 32°42' W 117°10'3 4.4
2017-Nov-14 23:45N 32°42' W 117°14'0 0.2
2017-Nov-14 23:20N 32°41' W 117°14'0 0.2
2017-Nov-14 22:59N 32°42' W 117°14'0 0.1
2017-Nov-14 22:30N 32°42' W 117°14'0 0.3
2017-Nov-14 21:26N 32°42' W 117°14'0 0.5
2017-Nov-14 20:59N 32°42' W 117°14'0 0.1
2017-Nov-14 18:02N 32°42' W 117°14'0 0.4
2017-Nov-14 17:26N 32°42' W 117°14'5 0.1
2017-Nov-13 01:51N 32°41' W 117°09'5 6.9
2017-Nov-13 01:12N 32°42' W 117°14'2 8.0
2017-Nov-13 00:53N 32°40' W 117°14'1 3.0
2017-Nov-13 00:30N 32°40' W 117°12'1 1.5
2017-Nov-12 23:58N 32°40' W 117°11'1 1.1
2017-Nov-12 23:20N 32°40' W 117°11'0 0.0
2017-Nov-12 22:59N 32°40' W 117°11'0 0.0
2017-Nov-12 22:14N 32°40' W 117°11'0 0.0
2017-Nov-12 21:50N 32°40' W 117°11'0 0.0
2017-Nov-12 21:29N 32°40' W 117°11'0 0.0
2017-Nov-12 20:58N 32°40' W 117°11'0 0.0
2017-Nov-12 20:28N 32°40' W 117°11'0 0.0
2017-Nov-12 18:53N 32°40' W 117°11'1 0.6
2017-Nov-12 17:47N 32°40' W 117°12'0 0.0
2017-Nov-12 17:30N 32°40' W 117°12'1 1.2
2017-Nov-12 17:00N 32°40' W 117°11'0 0.3
2017-Nov-12 16:24N 32°40' W 117°11'2 2.1
2017-Nov-12 15:30N 32°40' W 117°13'4 7.1
2017-Nov-12 15:00N 32°43' W 117°12'5 8.0
2017-Nov-12 14:22N 32°40' W 117°08'0 0.2
2017-Nov-12 12:37N 32°39' W 117°07'0 0.0
2017-Nov-12 12:30N 32°39' W 117°07'4 0.4
2017-Nov-12 02:02N 32°42' W 117°10'3 6.6
2017-Nov-12 01:34N 32°42' W 117°14'3 6.7
2017-Nov-12 01:10N 32°40' W 117°13'1 0.1
2017-Nov-11 16:20N 32°40' W 117°12'3 3.2
2017-Nov-11 15:29N 32°42' W 117°14'5 0.2
2017-Nov-10 13:18N 32°41' W 117°20'2 7.1
2017-Nov-10 13:00N 32°43' W 117°21'4 7.2
2017-Nov-10 12:30N 32°46' W 117°23'4 7.1
2017-Nov-10 12:00N 32°49' W 117°25'4 7.2
2017-Nov-10 11:30N 32°52' W 117°28'4 7.4
2017-Nov-10 11:00N 32°56' W 117°30'4 6.7
2017-Nov-10 10:25N 32°59' W 117°32'3 7.6
2017-Nov-10 10:00N 33°02' W 117°35'4 7.8
2017-Nov-10 09:30N 33°05' W 117°37'4 7.9
2017-Nov-10 09:00N 33°08' W 117°40'4 7.9
2017-Nov-10 08:30N 33°11' W 117°43'4 7.9
2017-Nov-10 08:00N 33°14' W 117°46'33 8.0
2017-Nov-10 03:49N 33°39' W 118°12'6 0.1
2017-Nov-08 00:51N 33°44' W 118°16'0 0.0
2017-Nov-08 00:30N 33°44' W 118°16'0 0.0
2017-Nov-08 00:00N 33°44' W 118°16'  

Dump ship's entire track history